sensor_id;sensor_type;location;lat;lon;timestamp;P1;durP1;ratioP1;P2;durP2;ratioP2
52186;SDS011;38161;53.020;6.598;2023-05-16T00:02:05;15.90;;;4.95;;
52186;SDS011;38161;53.020;6.598;2023-05-16T00:04:31;14.68;;;4.00;;
52186;SDS011;38161;53.020;6.598;2023-05-16T00:06:57;13.55;;;4.68;;
52186;SDS011;38161;53.020;6.598;2023-05-16T00:09:23;11.27;;;4.22;;
52186;SDS011;38161;53.020;6.598;2023-05-16T00:11:49;12.27;;;4.20;;
52186;SDS011;38161;53.020;6.598;2023-05-16T00:14:15;16.60;;;5.07;;
52186;SDS011;38161;53.020;6.598;2023-05-16T00:16:41;10.90;;;3.97;;
52186;SDS011;38161;53.020;6.598;2023-05-16T00:19:06;13.10;;;4.03;;
52186;SDS011;38161;53.020;6.598;2023-05-16T00:21:32;12.27;;;4.47;;
52186;SDS011;38161;53.020;6.598;2023-05-16T00:23:58;14.63;;;4.80;;
52186;SDS011;38161;53.020;6.598;2023-05-16T00:26:24;15.75;;;4.15;;
52186;SDS011;38161;53.020;6.598;2023-05-16T00:28:50;11.65;;;4.13;;
52186;SDS011;38161;53.020;6.598;2023-05-16T00:31:16;15.00;;;3.78;;
52186;SDS011;38161;53.020;6.598;2023-05-16T00:33:42;14.70;;;5.25;;
52186;SDS011;38161;53.020;6.598;2023-05-16T00:36:08;12.98;;;4.15;;
52186;SDS011;38161;53.020;6.598;2023-05-16T00:38:33;11.48;;;3.75;;
52186;SDS011;38161;53.020;6.598;2023-05-16T00:40:59;17.58;;;4.20;;
52186;SDS011;38161;53.020;6.598;2023-05-16T00:43:25;11.10;;;4.13;;
52186;SDS011;38161;53.020;6.598;2023-05-16T00:45:51;10.73;;;3.70;;
52186;SDS011;38161;53.020;6.598;2023-05-16T00:48:17;8.88;;;3.83;;
52186;SDS011;38161;53.020;6.598;2023-05-16T00:50:43;11.70;;;4.22;;
52186;SDS011;38161;53.020;6.598;2023-05-16T00:53:09;10.60;;;4.18;;
52186;SDS011;38161;53.020;6.598;2023-05-16T00:55:35;12.60;;;3.88;;
52186;SDS011;38161;53.020;6.598;2023-05-16T00:58:02;16.58;;;4.50;;
52186;SDS011;38161;53.020;6.598;2023-05-16T01:00:29;13.48;;;3.95;;
52186;SDS011;38161;53.020;6.598;2023-05-16T01:02:55;12.23;;;4.40;;
52186;SDS011;38161;53.020;6.598;2023-05-16T01:05:21;11.63;;;4.35;;
52186;SDS011;38161;53.020;6.598;2023-05-16T01:07:48;11.02;;;3.80;;
52186;SDS011;38161;53.020;6.598;2023-05-16T01:10:13;9.93;;;4.13;;
52186;SDS011;38161;53.020;6.598;2023-05-16T01:15:21;11.95;;;4.30;;
52186;SDS011;38161;53.020;6.598;2023-05-16T01:18:55;8.15;;;3.50;;
52186;SDS011;38161;53.020;6.598;2023-05-16T01:20:56;8.30;;;3.28;;
52186;SDS011;38161;53.020;6.598;2023-05-16T01:26:27;12.10;;;4.03;;
52186;SDS011;38161;53.020;6.598;2023-05-16T01:28:56;10.20;;;5.30;;
52186;SDS011;38161;53.020;6.598;2023-05-16T01:33:48;13.57;;;5.28;;
52186;SDS011;38161;53.020;6.598;2023-05-16T01:36:18;13.90;;;3.28;;
52186;SDS011;38161;53.020;6.598;2023-05-16T01:41:42;9.43;;;2.88;;
52186;SDS011;38161;53.020;6.598;2023-05-16T01:44:32;12.98;;;2.63;;
52186;SDS011;38161;53.020;6.598;2023-05-16T01:47:19;13.52;;;2.70;;
52186;SDS011;38161;53.020;6.598;2023-05-16T01:52:49;9.50;;;2.88;;
52186;SDS011;38161;53.020;6.598;2023-05-16T01:55:25;10.65;;;2.67;;
52186;SDS011;38161;53.020;6.598;2023-05-16T01:57:54;10.85;;;2.35;;
52186;SDS011;38161;53.020;6.598;2023-05-16T02:00:20;8.88;;;2.88;;
52186;SDS011;38161;53.020;6.598;2023-05-16T02:05:13;8.25;;;2.22;;
52186;SDS011;38161;53.020;6.598;2023-05-16T02:07:39;8.65;;;2.70;;
52186;SDS011;38161;53.020;6.598;2023-05-16T02:10:05;10.15;;;2.50;;
52186;SDS011;38161;53.020;6.598;2023-05-16T02:12:32;7.88;;;2.13;;
52186;SDS011;38161;53.020;6.598;2023-05-16T02:14:57;12.20;;;3.00;;
52186;SDS011;38161;53.020;6.598;2023-05-16T02:17:23;10.97;;;2.70;;
52186;SDS011;38161;53.020;6.598;2023-05-16T02:19:49;7.80;;;2.40;;
52186;SDS011;38161;53.020;6.598;2023-05-16T02:22:15;10.73;;;3.07;;
52186;SDS011;38161;53.020;6.598;2023-05-16T02:24:40;9.70;;;2.53;;
52186;SDS011;38161;53.020;6.598;2023-05-16T02:27:06;10.17;;;2.87;;
52186;SDS011;38161;53.020;6.598;2023-05-16T02:29:32;7.17;;;3.17;;
52186;SDS011;38161;53.020;6.598;2023-05-16T02:31:57;9.80;;;2.37;;
52186;SDS011;38161;53.020;6.598;2023-05-16T02:34:26;9.07;;;2.30;;
52186;SDS011;38161;53.020;6.598;2023-05-16T02:36:52;8.32;;;2.13;;
52186;SDS011;38161;53.020;6.598;2023-05-16T02:39:18;9.43;;;2.50;;
52186;SDS011;38161;53.020;6.598;2023-05-16T02:41:44;7.90;;;2.10;;
52186;SDS011;38161;53.020;6.598;2023-05-16T02:44:09;9.77;;;2.83;;
52186;SDS011;38161;53.020;6.598;2023-05-16T02:46:35;10.73;;;3.30;;
52186;SDS011;38161;53.020;6.598;2023-05-16T02:49:01;9.45;;;2.40;;
52186;SDS011;38161;53.020;6.598;2023-05-16T02:51:27;10.20;;;2.25;;
52186;SDS011;38161;53.020;6.598;2023-05-16T02:53:53;10.75;;;2.58;;
52186;SDS011;38161;53.020;6.598;2023-05-16T02:56:24;14.98;;;3.17;;
52186;SDS011;38161;53.020;6.598;2023-05-16T02:58:50;7.80;;;2.22;;
52186;SDS011;38161;53.020;6.598;2023-05-16T03:01:17;12.80;;;2.60;;
52186;SDS011;38161;53.020;6.598;2023-05-16T03:03:43;12.20;;;3.17;;
52186;SDS011;38161;53.020;6.598;2023-05-16T03:06:08;16.47;;;3.10;;
52186;SDS011;38161;53.020;6.598;2023-05-16T03:08:34;7.78;;;2.30;;
52186;SDS011;38161;53.020;6.598;2023-05-16T03:11:00;11.20;;;2.60;;
52186;SDS011;38161;53.020;6.598;2023-05-16T03:13:26;9.77;;;2.60;;
52186;SDS011;38161;53.020;6.598;2023-05-16T03:15:54;7.68;;;2.47;;
52186;SDS011;38161;53.020;6.598;2023-05-16T03:18:20;7.60;;;2.70;;
52186;SDS011;38161;53.020;6.598;2023-05-16T03:20:46;9.18;;;2.50;;
52186;SDS011;38161;53.020;6.598;2023-05-16T03:23:12;8.73;;;3.47;;
52186;SDS011;38161;53.020;6.598;2023-05-16T03:25:38;8.48;;;3.13;;
52186;SDS011;38161;53.020;6.598;2023-05-16T03:28:04;8.10;;;2.60;;
52186;SDS011;38161;53.020;6.598;2023-05-16T03:30:32;10.00;;;2.83;;
52186;SDS011;38161;53.020;6.598;2023-05-16T03:32:58;7.95;;;2.88;;
52186;SDS011;38161;53.020;6.598;2023-05-16T03:35:24;9.88;;;2.75;;
52186;SDS011;38161;53.020;6.598;2023-05-16T03:37:50;9.98;;;2.83;;
52186;SDS011;38161;53.020;6.598;2023-05-16T03:40:16;9.52;;;2.90;;
52186;SDS011;38161;53.020;6.598;2023-05-16T03:42:42;14.30;;;3.08;;
52186;SDS011;38161;53.020;6.598;2023-05-16T03:45:08;9.93;;;2.70;;
52186;SDS011;38161;53.020;6.598;2023-05-16T03:47:34;14.05;;;3.25;;
52186;SDS011;38161;53.020;6.598;2023-05-16T03:49:59;20.27;;;3.07;;
52186;SDS011;38161;53.020;6.598;2023-05-16T03:52:25;8.57;;;2.73;;
52186;SDS011;38161;53.020;6.598;2023-05-16T03:54:51;10.63;;;2.80;;
52186;SDS011;38161;53.020;6.598;2023-05-16T03:57:16;8.97;;;2.63;;
52186;SDS011;38161;53.020;6.598;2023-05-16T03:59:42;7.30;;;2.83;;
52186;SDS011;38161;53.020;6.598;2023-05-16T04:02:08;8.60;;;3.13;;
52186;SDS011;38161;53.020;6.598;2023-05-16T04:04:36;10.97;;;3.30;;
52186;SDS011;38161;53.020;6.598;2023-05-16T04:07:02;7.35;;;2.30;;
52186;SDS011;38161;53.020;6.598;2023-05-16T04:09:28;9.00;;;2.97;;
52186;SDS011;38161;53.020;6.598;2023-05-16T04:11:54;7.25;;;2.42;;
52186;SDS011;38161;53.020;6.598;2023-05-16T04:14:21;11.25;;;3.13;;
52186;SDS011;38161;53.020;6.598;2023-05-16T04:16:48;10.70;;;2.50;;
52186;SDS011;38161;53.020;6.598;2023-05-16T04:19:14;8.90;;;2.60;;
52186;SDS011;38161;53.020;6.598;2023-05-16T04:21:40;8.30;;;2.90;;
52186;SDS011;38161;53.020;6.598;2023-05-16T04:24:06;11.13;;;2.67;;
52186;SDS011;38161;53.020;6.598;2023-05-16T04:26:32;11.05;;;3.28;;
52186;SDS011;38161;53.020;6.598;2023-05-16T04:28:58;8.43;;;2.97;;
52186;SDS011;38161;53.020;6.598;2023-05-16T04:31:24;12.17;;;2.73;;
52186;SDS011;38161;53.020;6.598;2023-05-16T04:33:50;8.50;;;2.70;;
52186;SDS011;38161;53.020;6.598;2023-05-16T04:36:17;7.88;;;2.60;;
52186;SDS011;38161;53.020;6.598;2023-05-16T04:38:42;10.53;;;2.83;;
52186;SDS011;38161;53.020;6.598;2023-05-16T04:41:10;9.02;;;2.88;;
52186;SDS011;38161;53.020;6.598;2023-05-16T04:43:37;9.10;;;2.85;;
52186;SDS011;38161;53.020;6.598;2023-05-16T04:46:03;10.07;;;3.05;;
52186;SDS011;38161;53.020;6.598;2023-05-16T04:48:29;13.77;;;3.33;;
52186;SDS011;38161;53.020;6.598;2023-05-16T04:50:55;18.50;;;3.42;;
52186;SDS011;38161;53.020;6.598;2023-05-16T04:55:47;10.23;;;2.88;;
52186;SDS011;38161;53.020;6.598;2023-05-16T04:58:13;11.03;;;3.03;;
52186;SDS011;38161;53.020;6.598;2023-05-16T05:00:38;10.73;;;2.90;;
52186;SDS011;38161;53.020;6.598;2023-05-16T05:03:07;14.83;;;3.10;;
52186;SDS011;38161;53.020;6.598;2023-05-16T05:05:33;12.65;;;2.72;;
52186;SDS011;38161;53.020;6.598;2023-05-16T05:07:58;9.03;;;2.57;;
52186;SDS011;38161;53.020;6.598;2023-05-16T05:12:52;8.75;;;2.50;;
52186;SDS011;38161;53.020;6.598;2023-05-16T05:15:18;12.25;;;2.50;;
52186;SDS011;38161;53.020;6.598;2023-05-16T05:17:43;13.15;;;2.65;;
52186;SDS011;38161;53.020;6.598;2023-05-16T05:20:10;7.57;;;2.90;;
52186;SDS011;38161;53.020;6.598;2023-05-16T05:25:02;8.32;;;2.67;;
52186;SDS011;38161;53.020;6.598;2023-05-16T05:27:28;7.20;;;2.50;;
52186;SDS011;38161;53.020;6.598;2023-05-16T05:29:53;7.60;;;2.50;;
52186;SDS011;38161;53.020;6.598;2023-05-16T05:32:20;10.23;;;2.70;;
52186;SDS011;38161;53.020;6.598;2023-05-16T05:34:45;7.40;;;2.53;;
52186;SDS011;38161;53.020;6.598;2023-05-16T05:37:12;10.77;;;2.75;;
52186;SDS011;38161;53.020;6.598;2023-05-16T05:39:38;9.57;;;2.90;;
52186;SDS011;38161;53.020;6.598;2023-05-16T05:42:04;11.00;;;3.33;;
52186;SDS011;38161;53.020;6.598;2023-05-16T05:44:30;9.57;;;3.03;;
52186;SDS011;38161;53.020;6.598;2023-05-16T05:46:56;9.57;;;2.60;;
52186;SDS011;38161;53.020;6.598;2023-05-16T05:49:23;9.18;;;3.10;;
52186;SDS011;38161;53.020;6.598;2023-05-16T05:51:49;10.40;;;2.28;;
52186;SDS011;38161;53.020;6.598;2023-05-16T05:56:45;8.02;;;2.40;;
52186;SDS011;38161;53.020;6.598;2023-05-16T05:59:10;9.88;;;2.92;;
52186;SDS011;38161;53.020;6.598;2023-05-16T06:01:36;8.13;;;2.70;;
52186;SDS011;38161;53.020;6.598;2023-05-16T06:04:02;8.90;;;3.17;;
52186;SDS011;38161;53.020;6.598;2023-05-16T06:06:28;8.18;;;2.70;;
52186;SDS011;38161;53.020;6.598;2023-05-16T06:08:55;9.63;;;3.13;;
52186;SDS011;38161;53.020;6.598;2023-05-16T06:11:20;7.83;;;2.70;;
52186;SDS011;38161;53.020;6.598;2023-05-16T06:13:46;10.47;;;2.57;;
52186;SDS011;38161;53.020;6.598;2023-05-16T06:16:12;7.28;;;2.85;;
52186;SDS011;38161;53.020;6.598;2023-05-16T06:18:38;9.57;;;2.93;;
52186;SDS011;38161;53.020;6.598;2023-05-16T06:21:04;8.37;;;2.27;;
52186;SDS011;38161;53.020;6.598;2023-05-16T06:23:31;9.35;;;2.78;;
52186;SDS011;38161;53.020;6.598;2023-05-16T06:25:57;8.23;;;2.67;;
52186;SDS011;38161;53.020;6.598;2023-05-16T06:28:22;7.70;;;2.30;;
52186;SDS011;38161;53.020;6.598;2023-05-16T06:30:49;7.13;;;2.42;;
52186;SDS011;38161;53.020;6.598;2023-05-16T06:33:17;8.55;;;2.53;;
52186;SDS011;38161;53.020;6.598;2023-05-16T06:35:44;15.10;;;3.20;;
52186;SDS011;38161;53.020;6.598;2023-05-16T06:38:13;10.13;;;2.58;;
52186;SDS011;38161;53.020;6.598;2023-05-16T06:40:39;8.80;;;3.42;;
52186;SDS011;38161;53.020;6.598;2023-05-16T06:43:05;9.30;;;2.97;;
52186;SDS011;38161;53.020;6.598;2023-05-16T06:45:30;8.70;;;2.40;;
52186;SDS011;38161;53.020;6.598;2023-05-16T06:47:56;9.32;;;3.03;;
52186;SDS011;38161;53.020;6.598;2023-05-16T06:50:22;6.15;;;2.67;;
52186;SDS011;38161;53.020;6.598;2023-05-16T06:52:48;3.78;;;1.92;;
52186;SDS011;38161;53.020;6.598;2023-05-16T06:55:14;6.50;;;2.60;;
52186;SDS011;38161;53.020;6.598;2023-05-16T06:57:40;7.03;;;2.05;;
52186;SDS011;38161;53.020;6.598;2023-05-16T07:00:06;5.37;;;2.40;;
52186;SDS011;38161;53.020;6.598;2023-05-16T07:02:33;4.97;;;1.88;;
52186;SDS011;38161;53.020;6.598;2023-05-16T07:04:58;5.05;;;2.10;;
52186;SDS011;38161;53.020;6.598;2023-05-16T07:07:24;4.63;;;2.08;;
52186;SDS011;38161;53.020;6.598;2023-05-16T07:09:50;4.43;;;1.70;;
52186;SDS011;38161;53.020;6.598;2023-05-16T07:12:16;9.33;;;1.97;;
52186;SDS011;38161;53.020;6.598;2023-05-16T07:14:42;8.73;;;2.40;;
52186;SDS011;38161;53.020;6.598;2023-05-16T07:17:08;5.43;;;2.20;;
52186;SDS011;38161;53.020;6.598;2023-05-16T07:19:34;9.85;;;2.20;;
52186;SDS011;38161;53.020;6.598;2023-05-16T07:22:00;6.53;;;1.70;;
52186;SDS011;38161;53.020;6.598;2023-05-16T07:24:26;6.07;;;1.90;;
52186;SDS011;38161;53.020;6.598;2023-05-16T07:26:51;6.00;;;2.20;;
52186;SDS011;38161;53.020;6.598;2023-05-16T07:29:17;7.72;;;2.35;;
52186;SDS011;38161;53.020;6.598;2023-05-16T07:31:43;9.10;;;2.47;;
52186;SDS011;38161;53.020;6.598;2023-05-16T07:34:09;7.05;;;2.33;;
52186;SDS011;38161;53.020;6.598;2023-05-16T07:36:36;7.15;;;2.42;;
52186;SDS011;38161;53.020;6.598;2023-05-16T07:39:02;5.43;;;1.60;;
52186;SDS011;38161;53.020;6.598;2023-05-16T07:41:29;7.68;;;2.47;;
52186;SDS011;38161;53.020;6.598;2023-05-16T07:43:55;10.10;;;3.13;;
52186;SDS011;38161;53.020;6.598;2023-05-16T07:46:20;10.13;;;2.83;;
52186;SDS011;38161;53.020;6.598;2023-05-16T07:48:47;4.97;;;2.25;;
52186;SDS011;38161;53.020;6.598;2023-05-16T07:51:12;5.47;;;1.92;;
52186;SDS011;38161;53.020;6.598;2023-05-16T07:53:38;5.78;;;2.00;;
52186;SDS011;38161;53.020;6.598;2023-05-16T07:56:07;7.25;;;2.13;;
52186;SDS011;38161;53.020;6.598;2023-05-16T07:58:33;7.22;;;2.05;;
52186;SDS011;38161;53.020;6.598;2023-05-16T08:00:59;8.48;;;2.25;;
52186;SDS011;38161;53.020;6.598;2023-05-16T08:03:25;10.27;;;2.55;;
52186;SDS011;38161;53.020;6.598;2023-05-16T08:05:50;9.48;;;2.63;;
52186;SDS011;38161;53.020;6.598;2023-05-16T08:08:17;6.72;;;2.20;;
52186;SDS011;38161;53.020;6.598;2023-05-16T08:10:43;5.45;;;1.98;;
52186;SDS011;38161;53.020;6.598;2023-05-16T08:13:09;5.43;;;2.35;;
52186;SDS011;38161;53.020;6.598;2023-05-16T08:15:35;5.93;;;2.25;;
52186;SDS011;38161;53.020;6.598;2023-05-16T08:18:01;5.72;;;2.60;;
52186;SDS011;38161;53.020;6.598;2023-05-16T08:20:27;8.32;;;2.65;;
52186;SDS011;38161;53.020;6.598;2023-05-16T08:22:53;10.10;;;2.92;;
52186;SDS011;38161;53.020;6.598;2023-05-16T08:25:19;10.82;;;2.85;;
52186;SDS011;38161;53.020;6.598;2023-05-16T08:27:45;12.07;;;2.75;;
52186;SDS011;38161;53.020;6.598;2023-05-16T08:30:13;5.50;;;2.17;;
52186;SDS011;38161;53.020;6.598;2023-05-16T08:32:39;4.93;;;2.35;;
52186;SDS011;38161;53.020;6.598;2023-05-16T08:35:05;5.57;;;2.33;;
52186;SDS011;38161;53.020;6.598;2023-05-16T08:37:31;9.85;;;2.95;;
52186;SDS011;38161;53.020;6.598;2023-05-16T08:39:57;7.00;;;2.40;;
52186;SDS011;38161;53.020;6.598;2023-05-16T08:42:23;4.80;;;2.90;;
52186;SDS011;38161;53.020;6.598;2023-05-16T08:44:49;7.30;;;2.40;;
52186;SDS011;38161;53.020;6.598;2023-05-16T08:47:17;11.13;;;3.00;;
52186;SDS011;38161;53.020;6.598;2023-05-16T08:49:46;9.18;;;2.65;;
52186;SDS011;38161;53.020;6.598;2023-05-16T08:52:13;6.47;;;2.22;;
52186;SDS011;38161;53.020;6.598;2023-05-16T08:54:43;8.68;;;2.20;;
52186;SDS011;38161;53.020;6.598;2023-05-16T08:57:10;12.32;;;3.22;;
52186;SDS011;38161;53.020;6.598;2023-05-16T08:59:37;7.35;;;2.38;;
52186;SDS011;38161;53.020;6.598;2023-05-16T09:02:05;8.13;;;2.75;;
52186;SDS011;38161;53.020;6.598;2023-05-16T09:04:32;4.57;;;2.38;;
52186;SDS011;38161;53.020;6.598;2023-05-16T09:06:58;5.68;;;2.42;;
52186;SDS011;38161;53.020;6.598;2023-05-16T09:09:24;11.05;;;2.58;;
52186;SDS011;38161;53.020;6.598;2023-05-16T09:11:50;5.25;;;2.53;;
52186;SDS011;38161;53.020;6.598;2023-05-16T09:14:15;5.70;;;2.53;;
52186;SDS011;38161;53.020;6.598;2023-05-16T09:16:44;7.05;;;2.53;;
52186;SDS011;38161;53.020;6.598;2023-05-16T09:19:11;5.22;;;2.20;;
52186;SDS011;38161;53.020;6.598;2023-05-16T09:21:38;6.43;;;2.83;;
52186;SDS011;38161;53.020;6.598;2023-05-16T09:24:04;11.57;;;3.42;;
52186;SDS011;38161;53.020;6.598;2023-05-16T09:26:32;4.47;;;2.45;;
52186;SDS011;38161;53.020;6.598;2023-05-16T09:28:58;6.13;;;2.80;;
52186;SDS011;38161;53.020;6.598;2023-05-16T09:31:26;5.35;;;2.30;;
52186;SDS011;38161;53.020;6.598;2023-05-16T09:33:56;6.85;;;2.25;;
52186;SDS011;38161;53.020;6.598;2023-05-16T09:36:22;10.20;;;2.78;;
52186;SDS011;38161;53.020;6.598;2023-05-16T09:38:51;4.75;;;2.25;;
52186;SDS011;38161;53.020;6.598;2023-05-16T09:41:17;7.72;;;2.63;;
52186;SDS011;38161;53.020;6.598;2023-05-16T09:43:46;7.47;;;2.90;;
52186;SDS011;38161;53.020;6.598;2023-05-16T09:46:14;7.88;;;2.72;;
52186;SDS011;38161;53.020;6.598;2023-05-16T09:48:43;7.60;;;2.65;;
52186;SDS011;38161;53.020;6.598;2023-05-16T09:51:12;6.95;;;2.53;;
52186;SDS011;38161;53.020;6.598;2023-05-16T09:53:39;6.35;;;2.05;;
52186;SDS011;38161;53.020;6.598;2023-05-16T09:56:06;7.80;;;2.75;;
52186;SDS011;38161;53.020;6.598;2023-05-16T09:58:36;6.13;;;2.20;;
52186;SDS011;38161;53.020;6.598;2023-05-16T10:01:03;7.47;;;2.85;;
52186;SDS011;38161;53.020;6.598;2023-05-16T10:03:30;6.13;;;2.70;;
52186;SDS011;38161;53.020;6.598;2023-05-16T10:05:58;6.68;;;2.50;;
52186;SDS011;38161;53.020;6.598;2023-05-16T10:08:25;6.65;;;3.03;;
52186;SDS011;38161;53.020;6.598;2023-05-16T10:13:22;5.15;;;2.50;;
52186;SDS011;38161;53.020;6.598;2023-05-16T10:15:49;8.45;;;3.25;;
52186;SDS011;38161;53.020;6.598;2023-05-16T10:18:19;4.45;;;2.78;;
52186;SDS011;38161;53.020;6.598;2023-05-16T10:20:46;6.30;;;2.58;;
52186;SDS011;38161;53.020;6.598;2023-05-16T10:23:17;6.03;;;2.72;;
52186;SDS011;38161;53.020;6.598;2023-05-16T10:25:45;6.75;;;3.22;;
52186;SDS011;38161;53.020;6.598;2023-05-16T10:28:13;7.05;;;2.83;;
52186;SDS011;38161;53.020;6.598;2023-05-16T10:30:41;3.80;;;2.05;;
52186;SDS011;38161;53.020;6.598;2023-05-16T10:33:09;5.90;;;2.65;;
52186;SDS011;38161;53.020;6.598;2023-05-16T10:35:37;5.93;;;2.88;;
52186;SDS011;38161;53.020;6.598;2023-05-16T10:38:03;5.85;;;2.65;;
52186;SDS011;38161;53.020;6.598;2023-05-16T10:40:30;5.57;;;2.60;;
52186;SDS011;38161;53.020;6.598;2023-05-16T10:42:57;8.32;;;3.30;;
52186;SDS011;38161;53.020;6.598;2023-05-16T10:45:24;4.88;;;2.85;;
52186;SDS011;38161;53.020;6.598;2023-05-16T10:47:54;7.03;;;3.05;;
52186;SDS011;38161;53.020;6.598;2023-05-16T10:50:34;7.78;;;3.20;;
52186;SDS011;38161;53.020;6.598;2023-05-16T10:56:03;10.65;;;3.03;;
52186;SDS011;38161;53.020;6.598;2023-05-16T11:01:15;4.30;;;2.35;;
52186;SDS011;38161;53.020;6.598;2023-05-16T11:04:00;5.65;;;2.63;;
52186;SDS011;38161;53.020;6.598;2023-05-16T11:06:34;4.85;;;2.95;;
52186;SDS011;38161;53.020;6.598;2023-05-16T11:09:17;5.40;;;2.20;;
52186;SDS011;38161;53.020;6.598;2023-05-16T11:19:28;6.20;;;2.40;;
52186;SDS011;38161;53.020;6.598;2023-05-16T11:24:48;5.57;;;3.05;;
52186;SDS011;38161;53.020;6.598;2023-05-16T11:27:23;9.15;;;3.00;;
52186;SDS011;38161;53.020;6.598;2023-05-16T11:29:51;6.00;;;3.10;;
52186;SDS011;38161;53.020;6.598;2023-05-16T11:32:21;5.57;;;3.30;;
52186;SDS011;38161;53.020;6.598;2023-05-16T11:34:48;8.15;;;3.50;;
52186;SDS011;38161;53.020;6.598;2023-05-16T11:37:15;9.27;;;3.65;;
52186;SDS011;38161;53.020;6.598;2023-05-16T11:39:41;6.45;;;3.72;;
52186;SDS011;38161;53.020;6.598;2023-05-16T11:42:08;7.38;;;3.80;;
52186;SDS011;38161;53.020;6.598;2023-05-16T11:44:34;4.38;;;3.40;;
52186;SDS011;38161;53.020;6.598;2023-05-16T11:47:00;7.55;;;3.95;;
52186;SDS011;38161;53.020;6.598;2023-05-16T11:49:26;6.57;;;3.65;;
52186;SDS011;38161;53.020;6.598;2023-05-16T11:54:18;6.38;;;3.45;;
52186;SDS011;38161;53.020;6.598;2023-05-16T11:56:45;5.38;;;3.53;;
52186;SDS011;38161;53.020;6.598;2023-05-16T11:59:11;9.55;;;3.83;;
52186;SDS011;38161;53.020;6.598;2023-05-16T12:01:37;5.93;;;3.72;;
52186;SDS011;38161;53.020;6.598;2023-05-16T12:04:07;6.57;;;3.45;;
52186;SDS011;38161;53.020;6.598;2023-05-16T12:06:35;7.82;;;3.60;;
52186;SDS011;38161;53.020;6.598;2023-05-16T12:09:02;8.10;;;3.63;;
52186;SDS011;38161;53.020;6.598;2023-05-16T12:11:35;8.48;;;4.10;;
52186;SDS011;38161;53.020;6.598;2023-05-16T12:14:02;11.20;;;4.10;;
52186;SDS011;38161;53.020;6.598;2023-05-16T12:16:29;7.63;;;3.78;;
52186;SDS011;38161;53.020;6.598;2023-05-16T12:18:56;9.77;;;4.25;;
52186;SDS011;38161;53.020;6.598;2023-05-16T12:21:23;10.48;;;4.05;;
52186;SDS011;38161;53.020;6.598;2023-05-16T12:23:49;8.60;;;4.18;;
52186;SDS011;38161;53.020;6.598;2023-05-16T12:26:24;10.85;;;4.47;;
52186;SDS011;38161;53.020;6.598;2023-05-16T12:28:58;9.20;;;4.18;;
52186;SDS011;38161;53.020;6.598;2023-05-16T12:31:27;4.95;;;3.50;;
52186;SDS011;38161;53.020;6.598;2023-05-16T12:33:55;8.75;;;4.15;;
52186;SDS011;38161;53.020;6.598;2023-05-16T12:36:22;9.02;;;4.22;;
52186;SDS011;38161;53.020;6.598;2023-05-16T12:38:49;7.28;;;3.80;;
52186;SDS011;38161;53.020;6.598;2023-05-16T12:41:16;8.50;;;3.90;;
52186;SDS011;38161;53.020;6.598;2023-05-16T12:43:49;16.20;;;4.72;;
52186;SDS011;38161;53.020;6.598;2023-05-16T12:46:15;10.45;;;4.82;;
52186;SDS011;38161;53.020;6.598;2023-05-16T12:51:17;4.53;;;3.03;;
52186;SDS011;38161;53.020;6.598;2023-05-16T12:53:44;10.32;;;4.45;;
52186;SDS011;38161;53.020;6.598;2023-05-16T12:56:11;7.22;;;4.05;;
52186;SDS011;38161;53.020;6.598;2023-05-16T12:58:38;7.50;;;4.10;;
52186;SDS011;38161;53.020;6.598;2023-05-16T13:03:30;5.97;;;3.70;;
52186;SDS011;38161;53.020;6.598;2023-05-16T13:05:57;7.55;;;3.90;;
52186;SDS011;38161;53.020;6.598;2023-05-16T13:08:23;9.52;;;4.10;;
52186;SDS011;38161;53.020;6.598;2023-05-16T13:10:49;6.93;;;3.42;;
52186;SDS011;38161;53.020;6.598;2023-05-16T13:13:15;7.55;;;4.03;;
52186;SDS011;38161;53.020;6.598;2023-05-16T13:15:45;9.38;;;4.32;;
52186;SDS011;38161;53.020;6.598;2023-05-16T13:18:12;7.93;;;3.83;;
52186;SDS011;38161;53.020;6.598;2023-05-16T13:20:38;8.10;;;3.53;;
52186;SDS011;38161;53.020;6.598;2023-05-16T13:23:04;9.55;;;4.68;;
52186;SDS011;38161;53.020;6.598;2023-05-16T13:25:30;10.90;;;4.53;;
52186;SDS011;38161;53.020;6.598;2023-05-16T13:27:57;10.70;;;4.25;;
52186;SDS011;38161;53.020;6.598;2023-05-16T13:30:23;10.65;;;4.38;;
52186;SDS011;38161;53.020;6.598;2023-05-16T13:32:49;8.35;;;4.30;;
52186;SDS011;38161;53.020;6.598;2023-05-16T13:35:16;7.85;;;4.35;;
52186;SDS011;38161;53.020;6.598;2023-05-16T13:37:42;9.02;;;4.28;;
52186;SDS011;38161;53.020;6.598;2023-05-16T13:40:08;9.95;;;4.43;;
52186;SDS011;38161;53.020;6.598;2023-05-16T13:42:37;11.82;;;4.50;;
52186;SDS011;38161;53.020;6.598;2023-05-16T13:45:04;8.23;;;3.97;;
52186;SDS011;38161;53.020;6.598;2023-05-16T13:47:30;8.20;;;4.18;;
52186;SDS011;38161;53.020;6.598;2023-05-16T13:49:59;7.45;;;4.35;;
52186;SDS011;38161;53.020;6.598;2023-05-16T13:52:30;7.50;;;4.25;;
52186;SDS011;38161;53.020;6.598;2023-05-16T13:54:56;7.63;;;4.07;;
52186;SDS011;38161;53.020;6.598;2023-05-16T13:57:21;7.13;;;4.43;;
52186;SDS011;38161;53.020;6.598;2023-05-16T13:59:47;7.15;;;4.13;;
52186;SDS011;38161;53.020;6.598;2023-05-16T14:02:13;9.57;;;4.13;;
52186;SDS011;38161;53.020;6.598;2023-05-16T14:04:39;8.82;;;4.10;;
52186;SDS011;38161;53.020;6.598;2023-05-16T14:07:05;9.38;;;3.88;;
52186;SDS011;38161;53.020;6.598;2023-05-16T14:09:31;5.80;;;4.28;;
52186;SDS011;38161;53.020;6.598;2023-05-16T14:11:59;7.95;;;4.35;;
52186;SDS011;38161;53.020;6.598;2023-05-16T14:14:26;6.75;;;4.32;;
52186;SDS011;38161;53.020;6.598;2023-05-16T14:16:52;8.95;;;4.35;;
52186;SDS011;38161;53.020;6.598;2023-05-16T14:19:18;7.72;;;4.43;;
52186;SDS011;38161;53.020;6.598;2023-05-16T14:21:44;6.32;;;3.85;;
52186;SDS011;38161;53.020;6.598;2023-05-16T14:24:10;7.90;;;4.75;;
52186;SDS011;38161;53.020;6.598;2023-05-16T14:26:36;8.00;;;4.30;;
52186;SDS011;38161;53.020;6.598;2023-05-16T14:29:01;7.70;;;4.75;;
52186;SDS011;38161;53.020;6.598;2023-05-16T14:31:28;6.25;;;4.20;;
52186;SDS011;38161;53.020;6.598;2023-05-16T14:36:19;7.57;;;4.55;;
52186;SDS011;38161;53.020;6.598;2023-05-16T14:38:45;5.95;;;3.55;;
52186;SDS011;38161;53.020;6.598;2023-05-16T14:41:13;6.80;;;3.88;;
52186;SDS011;38161;53.020;6.598;2023-05-16T14:43:39;6.68;;;3.83;;
52186;SDS011;38161;53.020;6.598;2023-05-16T14:46:04;10.23;;;5.43;;
52186;SDS011;38161;53.020;6.598;2023-05-16T14:48:30;7.20;;;4.45;;
52186;SDS011;38161;53.020;6.598;2023-05-16T14:50:57;6.68;;;4.30;;
52186;SDS011;38161;53.020;6.598;2023-05-16T14:53:24;7.47;;;4.75;;
52186;SDS011;38161;53.020;6.598;2023-05-16T14:58:16;7.78;;;4.15;;
52186;SDS011;38161;53.020;6.598;2023-05-16T15:00:42;9.30;;;5.05;;
52186;SDS011;38161;53.020;6.598;2023-05-16T15:03:07;7.55;;;4.60;;
52186;SDS011;38161;53.020;6.598;2023-05-16T15:05:33;7.88;;;4.90;;
52186;SDS011;38161;53.020;6.598;2023-05-16T15:07:59;7.75;;;5.25;;
52186;SDS011;38161;53.020;6.598;2023-05-16T15:10:25;8.27;;;4.63;;
52186;SDS011;38161;53.020;6.598;2023-05-16T15:12:51;7.30;;;4.57;;
52186;SDS011;38161;53.020;6.598;2023-05-16T15:15:17;8.85;;;5.70;;
52186;SDS011;38161;53.020;6.598;2023-05-16T15:17:43;7.75;;;4.82;;
52186;SDS011;38161;53.020;6.598;2023-05-16T15:20:09;6.43;;;4.72;;
52186;SDS011;38161;53.020;6.598;2023-05-16T15:22:37;8.85;;;4.38;;
52186;SDS011;38161;53.020;6.598;2023-05-16T15:25:04;7.30;;;4.60;;
52186;SDS011;38161;53.020;6.598;2023-05-16T15:27:31;7.03;;;4.32;;
52186;SDS011;38161;53.020;6.598;2023-05-16T15:29:57;6.20;;;4.07;;
52186;SDS011;38161;53.020;6.598;2023-05-16T15:32:23;7.00;;;4.38;;
52186;SDS011;38161;53.020;6.598;2023-05-16T15:34:49;5.43;;;4.70;;
52186;SDS011;38161;53.020;6.598;2023-05-16T15:37:15;6.80;;;4.00;;
52186;SDS011;38161;53.020;6.598;2023-05-16T15:39:40;8.10;;;4.37;;